createdAt,value
2023-02-23T00:02:13.083Z,96.59
2023-02-23T00:04:42.349Z,96.46
2023-02-23T00:07:10.644Z,96.32
2023-02-23T00:09:39.485Z,95.75
2023-02-23T00:12:10.428Z,96.08
2023-02-23T00:14:38.682Z,96.69
2023-02-23T00:17:14.871Z,97.14
2023-02-23T00:19:44.151Z,96.57
2023-02-23T00:22:13.007Z,96.13
2023-02-23T00:24:43.147Z,95.55
2023-02-23T00:27:10.826Z,95.66
2023-02-23T00:29:40.819Z,96.15
2023-02-23T00:32:08.502Z,96.75
2023-02-23T00:34:37.078Z,97.28
2023-02-23T00:37:04.727Z,97.77
2023-02-23T00:39:32.275Z,98.57
2023-02-23T00:42:03.816Z,99.20
2023-02-23T00:44:34.074Z,100.00
2023-02-23T00:47:02.206Z,100.00
2023-02-23T00:49:29.780Z,100.00
2023-02-23T00:51:57.158Z,100.00
2023-02-23T00:54:24.700Z,100.00
2023-02-23T00:56:54.116Z,100.00
2023-02-23T00:59:21.685Z,100.00
2023-02-23T01:01:52.806Z,100.00
2023-02-23T01:04:20.123Z,100.00
2023-02-23T01:06:47.544Z,100.00
2023-02-23T01:09:28.710Z,100.00
2023-02-23T01:11:57.442Z,100.00
2023-02-23T01:14:25.367Z,100.00
2023-02-23T01:16:53.947Z,100.00
2023-02-23T01:19:22.578Z,100.00
2023-02-23T01:21:52.178Z,100.00
2023-02-23T01:24:20.844Z,100.00
2023-02-23T01:26:54.286Z,100.00
2023-02-23T01:29:22.713Z,100.00
2023-02-23T01:31:53.160Z,100.00
2023-02-23T01:34:21.948Z,100.00
2023-02-23T01:36:50.422Z,100.00
2023-02-23T01:39:23.447Z,100.00
2023-02-23T01:41:52.823Z,100.00
2023-02-23T01:44:20.309Z,100.00
2023-02-23T01:46:49.620Z,100.00
2023-02-23T01:49:23.701Z,100.00
2023-02-23T01:52:04.887Z,100.00
2023-02-23T01:54:36.671Z,100.00
2023-02-23T01:57:06.823Z,100.00
2023-02-23T01:59:36.685Z,100.00
2023-02-23T02:02:06.496Z,100.00
2023-02-23T02:04:44.802Z,100.00
2023-02-23T02:07:23.651Z,100.00
2023-02-23T02:10:11.326Z,100.00
2023-02-23T02:12:44.678Z,100.00
2023-02-23T02:15:17.706Z,100.00
2023-02-23T02:18:09.553Z,100.00
2023-02-23T02:21:12.120Z,100.00
2023-02-23T02:24:09.887Z,100.00
2023-02-23T02:26:54.769Z,100.00
2023-02-23T02:29:56.343Z,100.00
2023-02-23T02:32:26.211Z,100.00
2023-02-23T02:35:06.033Z,100.00
2023-02-23T02:37:56.966Z,100.00
2023-02-23T02:40:53.647Z,100.00
2023-02-23T02:43:43.176Z,100.00
2023-02-23T02:46:37.472Z,100.00
2023-02-23T02:49:26.884Z,100.00
2023-02-23T02:52:06.070Z,100.00
2023-02-23T02:54:40.270Z,100.00
2023-02-23T02:57:15.204Z,100.00
2023-02-23T03:00:08.219Z,100.00
2023-02-23T03:02:56.573Z,100.00
2023-02-23T03:05:55.254Z,100.00
2023-02-23T03:08:59.994Z,100.00
2023-02-23T03:11:55.768Z,100.00
2023-02-23T03:14:58.158Z,100.00
2023-02-23T03:18:06.670Z,100.00
2023-02-23T03:21:04.523Z,100.00
2023-02-23T03:24:20.344Z,100.00
2023-02-23T03:27:17.737Z,100.00
2023-02-23T03:30:22.243Z,100.00
2023-02-23T03:33:15.077Z,100.00
2023-02-23T03:36:19.549Z,100.00
2023-02-23T03:39:27.746Z,100.00
2023-02-23T03:42:16.966Z,100.00
2023-02-23T03:45:18.243Z,100.00
2023-02-23T03:48:05.527Z,100.00
2023-02-23T03:51:00.012Z,100.00
2023-02-23T03:53:54.785Z,100.00
2023-02-23T03:56:45.348Z,100.00
2023-02-23T03:59:37.000Z,100.00
2023-02-23T04:02:25.282Z,100.00
2023-02-23T04:05:15.564Z,100.00
2023-02-23T04:08:04.760Z,100.00
2023-02-23T04:10:53.726Z,100.00
2023-02-23T04:13:25.148Z,100.00
2023-02-23T04:16:00.682Z,100.00
2023-02-23T04:18:37.732Z,100.00
2023-02-23T04:21:06.525Z,100.00
2023-02-23T04:23:36.648Z,100.00
2023-02-23T04:26:05.415Z,100.00
2023-02-23T04:28:32.463Z,100.00
2023-02-23T04:31:02.591Z,100.00
2023-02-23T04:33:30.062Z,100.00
2023-02-23T04:35:58.499Z,100.00
2023-02-23T04:38:25.943Z,100.00
2023-02-23T04:40:53.409Z,100.00
2023-02-23T04:43:22.967Z,100.00
2023-02-23T04:45:51.862Z,100.00
2023-02-23T04:48:19.576Z,100.00
2023-02-23T04:50:53.351Z,100.00
2023-02-23T04:53:20.969Z,100.00
2023-02-23T04:55:48.400Z,100.00
2023-02-23T04:58:17.396Z,100.00
2023-02-23T05:00:45.897Z,100.00
2023-02-23T05:03:13.084Z,100.00
2023-02-23T05:05:41.242Z,100.00
2023-02-23T05:08:08.780Z,100.00
2023-02-23T05:10:37.347Z,100.00
2023-02-23T05:13:05.216Z,100.00
2023-02-23T05:15:32.868Z,100.00
2023-02-23T05:18:00.252Z,100.00
2023-02-23T05:20:28.628Z,100.00
2023-02-23T05:22:56.025Z,100.00
2023-02-23T05:25:23.506Z,100.00
2023-02-23T05:27:51.178Z,100.00
2023-02-23T05:30:19.482Z,100.00
2023-02-23T05:32:46.849Z,100.00
2023-02-23T05:35:14.288Z,100.00
2023-02-23T05:37:41.830Z,100.00
2023-02-23T05:40:09.586Z,100.00
2023-02-23T05:42:38.689Z,100.00
2023-02-23T05:45:07.473Z,100.00
2023-02-23T05:47:38.953Z,100.00
2023-02-23T05:50:12.542Z,100.00
2023-02-23T05:52:45.511Z,100.00
2023-02-23T05:55:13.564Z,100.00
2023-02-23T05:57:44.114Z,100.00
2023-02-23T06:00:19.365Z,100.00
2023-02-23T06:02:46.453Z,100.00
2023-02-23T06:05:14.372Z,100.00
2023-02-23T06:07:42.579Z,100.00
2023-02-23T06:10:10.436Z,100.00
2023-02-23T06:12:37.532Z,100.00
2023-02-23T06:15:12.258Z,100.00
2023-02-23T06:17:39.526Z,100.00
2023-02-23T06:20:07.587Z,100.00
2023-02-23T06:22:36.054Z,100.00
2023-02-23T06:25:05.257Z,100.00
2023-02-23T06:27:34.466Z,100.00
2023-02-23T06:30:01.969Z,100.00
2023-02-23T06:32:29.514Z,100.00
2023-02-23T06:34:58.275Z,100.00
2023-02-23T06:37:25.487Z,100.00
2023-02-23T06:39:52.574Z,100.00
2023-02-23T06:42:20.044Z,100.00
2023-02-23T06:44:47.484Z,100.00
2023-02-23T06:47:14.922Z,100.00
2023-02-23T06:49:42.413Z,100.00
2023-02-23T06:52:10.707Z,100.00
2023-02-23T06:54:41.998Z,100.00
2023-02-23T06:57:10.386Z,100.00
2023-02-23T06:59:37.846Z,100.00
2023-02-23T07:02:07.942Z,100.00
2023-02-23T07:04:35.303Z,100.00
2023-02-23T07:07:04.028Z,100.00
2023-02-23T07:09:31.720Z,100.00
2023-02-23T07:11:59.680Z,100.00
2023-02-23T07:14:27.444Z,100.00
2023-02-23T07:16:54.856Z,100.00
2023-02-23T07:19:28.623Z,100.00
2023-02-23T07:21:57.078Z,100.00
2023-02-23T07:24:27.715Z,100.00
2023-02-23T07:26:55.548Z,100.00
2023-02-23T07:29:28.386Z,100.00
2023-02-23T07:31:56.387Z,100.00
2023-02-23T07:34:23.834Z,100.00
2023-02-23T07:36:51.195Z,100.00
2023-02-23T07:39:18.793Z,100.00
2023-02-23T07:41:47.222Z,100.00
2023-02-23T07:44:14.571Z,99.72
2023-02-23T07:46:42.149Z,98.81
2023-02-23T07:49:10.615Z,98.72
2023-02-23T07:51:39.669Z,98.43
2023-02-23T07:54:10.150Z,98.61
2023-02-23T07:56:37.630Z,97.52
2023-02-23T07:59:06.072Z,97.10
2023-02-23T08:01:33.524Z,96.62
2023-02-23T08:04:01.230Z,96.57
2023-02-23T08:06:30.934Z,95.71
2023-02-23T08:09:03.179Z,95.42
2023-02-23T08:11:30.660Z,95.22
2023-02-23T08:14:02.936Z,93.69
2023-02-23T08:16:32.313Z,92.76
2023-02-23T08:19:00.930Z,91.60
2023-02-23T08:21:30.512Z,90.37
2023-02-23T08:23:59.246Z,89.24
2023-02-23T08:26:27.068Z,90.16
2023-02-23T08:28:55.364Z,91.16
2023-02-23T08:31:24.938Z,92.17
2023-02-23T08:33:53.764Z,92.12
2023-02-23T08:36:23.080Z,92.56
2023-02-23T08:38:51.556Z,92.06
2023-02-23T08:41:19.077Z,91.35
2023-02-23T08:43:46.680Z,91.16
2023-02-23T08:46:16.935Z,91.55
2023-02-23T08:48:44.346Z,91.46
2023-02-23T08:51:11.833Z,91.90
2023-02-23T08:53:39.251Z,90.95
2023-02-23T08:56:13.685Z,90.30
2023-02-23T08:58:43.039Z,90.19
2023-02-23T09:01:24.585Z,89.91
2023-02-23T09:03:51.821Z,90.06
2023-02-23T09:06:21.387Z,88.71
2023-02-23T09:08:48.703Z,87.13
2023-02-23T09:11:16.097Z,86.82
2023-02-23T09:13:44.091Z,85.86
2023-02-23T09:16:11.643Z,84.72
2023-02-23T09:18:39.534Z,83.13
2023-02-23T09:21:19.389Z,82.05
2023-02-23T09:23:48.551Z,79.34
2023-02-23T09:26:18.204Z,75.79
2023-02-23T09:28:46.815Z,74.85
2023-02-23T09:31:18.382Z,73.35
2023-02-23T09:33:46.947Z,74.15
2023-02-23T09:36:16.848Z,71.57
2023-02-23T09:38:46.021Z,71.95
2023-02-23T09:41:51.975Z,71.74
2023-02-23T09:44:48.395Z,68.16
2023-02-23T09:47:40.660Z,67.08
2023-02-23T09:50:22.897Z,64.54
2023-02-23T09:52:57.104Z,65.80
2023-02-23T09:55:26.029Z,64.64
2023-02-23T09:57:59.436Z,65.53
2023-02-23T10:00:30.168Z,66.25
2023-02-23T10:03:29.315Z,66.84
2023-02-23T10:06:02.034Z,68.26
2023-02-23T10:09:06.722Z,66.17
2023-02-23T10:11:56.699Z,65.67
2023-02-23T10:14:38.558Z,64.76
2023-02-23T10:17:21.821Z,66.15
2023-02-23T10:20:15.189Z,64.79
2023-02-23T10:22:45.187Z,63.61
2023-02-23T10:25:36.452Z,63.64
2023-02-23T10:28:04.325Z,63.19
2023-02-23T10:30:34.542Z,63.41
2023-02-23T10:33:18.654Z,63.96
2023-02-23T10:36:12.563Z,61.78
2023-02-23T10:38:41.421Z,61.42
2023-02-23T10:41:10.953Z,61.37
2023-02-23T10:43:39.209Z,60.60
2023-02-23T10:46:07.679Z,60.60
2023-02-23T10:48:41.366Z,58.69
2023-02-23T10:51:16.842Z,61.17
2023-02-23T10:53:44.100Z,62.09
2023-02-23T10:56:15.345Z,61.01
2023-02-23T10:58:49.538Z,62.14
2023-02-23T11:01:33.468Z,63.03
2023-02-23T11:04:14.296Z,62.56
2023-02-23T11:06:43.272Z,63.81
2023-02-23T11:09:44.581Z,63.98
2023-02-23T11:12:37.281Z,62.20
2023-02-23T11:15:38.881Z,61.56
2023-02-23T11:18:22.563Z,59.69
2023-02-23T11:20:51.385Z,59.67
2023-02-23T11:23:29.624Z,61.42
2023-02-23T11:26:02.791Z,62.71
2023-02-23T11:28:35.248Z,61.78
2023-02-23T11:31:16.248Z,62.04
2023-02-23T11:33:44.477Z,62.60
2023-02-23T11:36:17.881Z,61.87
2023-02-23T11:38:48.143Z,61.57
2023-02-23T11:41:24.378Z,63.15
2023-02-23T11:43:56.949Z,63.06
2023-02-23T11:46:26.481Z,63.30
2023-02-23T11:49:00.177Z,63.78
2023-02-23T11:51:30.721Z,62.80
2023-02-23T11:53:59.833Z,62.11
2023-02-23T11:56:29.418Z,62.51
2023-02-23T11:59:16.647Z,62.28
2023-02-23T12:01:50.193Z,60.51
2023-02-23T12:04:31.400Z,58.65
2023-02-23T12:07:43.476Z,59.26
2023-02-23T12:10:15.519Z,60.25
2023-02-23T12:12:53.289Z,60.63
2023-02-23T12:15:34.999Z,61.89
2023-02-23T12:18:18.830Z,63.10
2023-02-23T12:20:49.270Z,62.43
2023-02-23T12:23:26.976Z,62.60
2023-02-23T12:26:29.826Z,62.58
2023-02-23T12:29:49.373Z,63.10
2023-02-23T12:32:24.885Z,62.20
2023-02-23T12:35:02.433Z,62.15
2023-02-23T12:37:41.176Z,61.44
2023-02-23T12:40:28.857Z,60.92
2023-02-23T12:43:27.263Z,60.08
2023-02-23T12:46:08.671Z,59.61
2023-02-23T12:49:01.633Z,59.06
2023-02-23T12:52:38.952Z,59.40
2023-02-23T12:55:14.080Z,59.51
2023-02-23T12:57:45.740Z,59.58
2023-02-23T13:00:31.476Z,58.29
2023-02-23T13:03:17.796Z,58.56
2023-02-23T13:06:04.514Z,59.33
2023-02-23T13:09:11.048Z,60.31
2023-02-23T13:11:56.723Z,61.14
2023-02-23T13:14:34.066Z,61.96
2023-02-23T13:17:09.575Z,62.07
2023-02-23T13:19:50.589Z,62.07
2023-02-23T13:22:47.284Z,61.08
2023-02-23T13:25:54.330Z,60.53
2023-02-23T13:28:57.189Z,61.85
2023-02-23T13:31:34.602Z,62.01
2023-02-23T13:34:03.939Z,63.47
2023-02-23T13:36:36.939Z,63.96
2023-02-23T13:39:20.333Z,64.84
2023-02-23T13:42:21.025Z,65.05
2023-02-23T13:45:20.686Z,64.81
2023-02-23T13:48:07.329Z,64.21
2023-02-23T13:50:48.330Z,64.38
2023-02-23T13:53:37.530Z,64.56
2023-02-23T13:56:09.073Z,64.06
2023-02-23T13:58:37.423Z,64.98
2023-02-23T14:01:21.226Z,65.60
2023-02-23T14:03:54.411Z,65.17
2023-02-23T14:06:26.028Z,65.47
2023-02-23T14:09:08.571Z,65.54
2023-02-23T14:11:53.955Z,66.00
2023-02-23T14:14:34.596Z,66.43
2023-02-23T14:17:12.434Z,68.00
2023-02-23T14:20:03.585Z,67.97
2023-02-23T14:22:34.746Z,68.17
2023-02-23T14:25:32.977Z,67.96
2023-02-23T14:28:22.398Z,69.73
2023-02-23T14:31:14.220Z,70.73
2023-02-23T14:33:46.268Z,71.03
2023-02-23T14:36:22.918Z,71.60
2023-02-23T14:39:07.377Z,71.69
2023-02-23T14:41:34.680Z,71.89
2023-02-23T14:44:29.831Z,72.22
2023-02-23T14:47:16.486Z,72.12
2023-02-23T14:49:51.590Z,73.03
2023-02-23T14:52:35.565Z,73.92
2023-02-23T14:55:29.974Z,74.37
2023-02-23T14:58:04.801Z,74.12
2023-02-23T15:00:41.493Z,73.72
2023-02-23T15:03:12.987Z,74.09
2023-02-23T15:05:55.078Z,74.35
2023-02-23T15:08:25.982Z,74.84
2023-02-23T15:11:13.545Z,76.05
2023-02-23T15:13:47.697Z,76.55
2023-02-23T15:16:24.561Z,76.79
2023-02-23T15:19:34.395Z,77.06
2023-02-23T15:22:03.953Z,77.67
2023-02-23T15:24:43.325Z,78.25
2023-02-23T15:27:26.206Z,78.58
2023-02-23T15:29:55.869Z,78.56
2023-02-23T15:32:26.655Z,78.05
2023-02-23T15:35:04.074Z,77.79
2023-02-23T15:37:56.593Z,77.70
2023-02-23T15:40:33.774Z,77.21
2023-02-23T15:43:01.854Z,76.91
2023-02-23T15:45:30.444Z,77.35
2023-02-23T15:48:03.682Z,76.53
2023-02-23T15:50:37.279Z,76.85
2023-02-23T15:53:13.776Z,76.96
2023-02-23T15:55:44.659Z,76.92
2023-02-23T15:58:25.553Z,77.21
2023-02-23T16:01:29.186Z,77.38
2023-02-23T16:04:02.832Z,77.84
2023-02-23T16:06:35.389Z,77.77
2023-02-23T16:09:20.466Z,78.12
2023-02-23T16:11:52.885Z,78.21
2023-02-23T16:14:22.704Z,78.31
2023-02-23T16:17:08.367Z,78.77
2023-02-23T16:19:41.733Z,78.80
2023-02-23T16:22:20.696Z,79.35
2023-02-23T16:24:58.076Z,79.13
2023-02-23T16:27:27.246Z,79.68
2023-02-23T16:30:31.687Z,79.86
2023-02-23T16:33:23.038Z,79.87
2023-02-23T16:36:15.097Z,80.25
2023-02-23T16:39:00.662Z,80.79
2023-02-23T16:41:31.622Z,80.94
2023-02-23T16:44:02.828Z,81.08
2023-02-23T16:46:33.898Z,81.08
2023-02-23T16:49:12.784Z,80.99
2023-02-23T16:51:40.940Z,81.29
2023-02-23T16:54:09.018Z,81.68
2023-02-23T16:56:40.337Z,81.86
2023-02-23T16:59:11.258Z,82.23
2023-02-23T17:01:39.022Z,82.26
2023-02-23T17:04:15.906Z,82.71
2023-02-23T17:06:45.290Z,82.81
2023-02-23T17:09:13.844Z,82.81
2023-02-23T17:11:42.913Z,82.89
2023-02-23T17:14:20.666Z,83.55
2023-02-23T17:16:48.982Z,83.48
2023-02-23T17:19:19.427Z,83.60
2023-02-23T17:21:49.112Z,83.83
2023-02-23T17:24:17.538Z,84.27
2023-02-23T17:26:46.325Z,84.42
2023-02-23T17:29:15.001Z,84.31
2023-02-23T17:31:42.847Z,84.41
2023-02-23T17:34:16.529Z,84.67
2023-02-23T17:36:47.089Z,85.01
2023-02-23T17:39:18.041Z,84.84
2023-02-23T17:41:47.119Z,85.08
2023-02-23T17:44:15.057Z,85.16
2023-02-23T17:46:44.645Z,85.44
2023-02-23T17:49:14.434Z,85.64
2023-02-23T17:51:43.942Z,85.74
2023-02-23T17:54:14.536Z,85.67
2023-02-23T17:56:44.503Z,85.55
2023-02-23T17:59:12.297Z,85.81
2023-02-23T18:01:42.618Z,86.13
2023-02-23T18:04:10.946Z,86.85
2023-02-23T18:06:39.155Z,86.85
2023-02-23T18:09:09.492Z,86.76
2023-02-23T18:11:37.599Z,86.88
2023-02-23T18:14:06.079Z,87.44
2023-02-23T18:16:36.480Z,87.82
2023-02-23T18:19:05.639Z,88.46
2023-02-23T18:21:35.442Z,89.00
2023-02-23T18:24:04.610Z,89.52
2023-02-23T18:26:33.699Z,89.84
2023-02-23T18:29:04.528Z,90.03
2023-02-23T18:31:38.990Z,90.28
2023-02-23T18:34:09.797Z,90.31
2023-02-23T18:36:39.042Z,89.54
2023-02-23T18:39:11.117Z,89.48
2023-02-23T18:41:42.639Z,89.93
2023-02-23T18:44:15.775Z,89.91
2023-02-23T18:46:46.629Z,90.66
2023-02-23T18:49:24.414Z,90.42
2023-02-23T18:51:56.152Z,91.33
2023-02-23T18:54:26.717Z,92.40
2023-02-23T18:56:56.762Z,93.70
2023-02-23T18:59:24.581Z,94.96
2023-02-23T19:01:54.233Z,97.05
2023-02-23T19:04:22.474Z,97.04
2023-02-23T19:07:02.750Z,96.94
2023-02-23T19:09:31.201Z,97.50
2023-02-23T19:12:01.341Z,96.21
2023-02-23T19:14:48.885Z,95.48
2023-02-23T19:17:21.036Z,95.55
2023-02-23T19:19:49.673Z,96.90
2023-02-23T19:22:17.957Z,97.22
2023-02-23T19:24:48.919Z,96.61
2023-02-23T19:27:17.296Z,97.53
2023-02-23T19:29:47.204Z,97.99
2023-02-23T19:32:20.080Z,99.07
2023-02-23T19:34:48.882Z,100.00
2023-02-23T19:37:17.308Z,100.00
2023-02-23T19:39:50.705Z,100.00
2023-02-23T19:42:26.547Z,100.00
2023-02-23T19:44:55.561Z,100.00
2023-02-23T19:47:23.891Z,100.00
2023-02-23T19:49:55.337Z,100.00
2023-02-23T19:52:23.723Z,100.00
2023-02-23T19:54:51.459Z,100.00
2023-02-23T19:57:22.012Z,100.00
2023-02-23T19:59:51.973Z,100.00
2023-02-23T20:02:19.535Z,100.00
2023-02-23T20:04:51.706Z,100.00
2023-02-23T20:07:19.625Z,100.00
2023-02-23T20:09:48.065Z,100.00
2023-02-23T20:12:17.486Z,100.00
2023-02-23T20:14:45.924Z,100.00
2023-02-23T20:17:14.272Z,100.00
2023-02-23T20:19:44.361Z,100.00
2023-02-23T20:22:12.668Z,100.00
2023-02-23T20:24:42.579Z,100.00
2023-02-23T20:27:13.418Z,100.00
2023-02-23T20:29:43.887Z,100.00
2023-02-23T20:32:13.386Z,100.00
2023-02-23T20:34:43.938Z,100.00
2023-02-23T20:37:12.645Z,100.00
2023-02-23T20:39:47.265Z,100.00
2023-02-23T20:42:15.072Z,100.00
2023-02-23T20:44:49.175Z,100.00
2023-02-23T20:47:30.637Z,100.00
2023-02-23T20:49:59.284Z,100.00
2023-02-23T20:52:26.927Z,100.00
2023-02-23T20:55:03.782Z,100.00
2023-02-23T20:57:33.695Z,100.00
2023-02-23T21:00:02.580Z,100.00
2023-02-23T21:02:33.471Z,100.00
2023-02-23T21:05:01.989Z,100.00
2023-02-23T21:07:30.108Z,100.00
2023-02-23T21:10:00.832Z,100.00
2023-02-23T21:12:29.052Z,100.00
2023-02-23T21:14:57.582Z,100.00
2023-02-23T21:17:26.287Z,100.00
2023-02-23T21:19:54.817Z,100.00
2023-02-23T21:22:23.478Z,100.00
2023-02-23T21:24:51.546Z,100.00
2023-02-23T21:27:21.111Z,100.00
2023-02-23T21:29:48.909Z,100.00
2023-02-23T21:32:18.956Z,100.00
2023-02-23T21:34:46.993Z,100.00
2023-02-23T21:37:15.638Z,100.00
2023-02-23T21:39:51.333Z,100.00
2023-02-23T21:42:23.093Z,100.00
2023-02-23T21:44:51.184Z,100.00
2023-02-23T21:47:20.888Z,100.00
2023-02-23T21:49:55.078Z,100.00
2023-02-23T21:52:23.041Z,100.00
2023-02-23T21:54:52.442Z,100.00
2023-02-23T21:57:23.134Z,100.00
2023-02-23T21:59:50.883Z,100.00
2023-02-23T22:02:20.574Z,100.00
2023-02-23T22:04:50.235Z,100.00
2023-02-23T22:07:17.691Z,100.00
2023-02-23T22:09:45.148Z,100.00
2023-02-23T22:12:12.664Z,100.00
2023-02-23T22:14:39.917Z,100.00
2023-02-23T22:17:09.969Z,100.00
2023-02-23T22:19:38.743Z,100.00
2023-02-23T22:22:20.409Z,100.00
2023-02-23T22:24:51.875Z,100.00
2023-02-23T22:27:19.501Z,100.00
2023-02-23T22:29:46.712Z,100.00
2023-02-23T22:32:14.394Z,100.00
2023-02-23T22:34:41.774Z,100.00
2023-02-23T22:37:09.139Z,100.00
2023-02-23T22:39:41.868Z,100.00
2023-02-23T22:42:12.903Z,100.00
2023-02-23T22:44:47.337Z,100.00
2023-02-23T22:47:15.923Z,100.00
2023-02-23T22:49:43.311Z,100.00
2023-02-23T22:52:10.747Z,100.00
2023-02-23T22:54:40.035Z,100.00
2023-02-23T22:57:07.323Z,100.00
2023-02-23T22:59:34.745Z,100.00
2023-02-23T23:02:03.160Z,100.00
2023-02-23T23:04:30.760Z,100.00
2023-02-23T23:06:58.543Z,100.00
2023-02-23T23:09:25.920Z,100.00
2023-02-23T23:11:54.123Z,100.00
2023-02-23T23:14:21.330Z,100.00
2023-02-23T23:16:52.419Z,100.00
2023-02-23T23:19:24.496Z,100.00
2023-02-23T23:22:00.645Z,100.00
2023-02-23T23:24:28.263Z,100.00
2023-02-23T23:26:56.063Z,100.00
2023-02-23T23:29:26.075Z,100.00
2023-02-23T23:31:53.940Z,100.00
2023-02-23T23:34:33.807Z,100.00
2023-02-23T23:37:03.177Z,100.00
2023-02-23T23:39:30.490Z,100.00
2023-02-23T23:41:58.967Z,100.00
2023-02-23T23:44:29.752Z,100.00
2023-02-23T23:46:58.538Z,100.00
2023-02-23T23:49:27.966Z,100.00
2023-02-23T23:51:56.943Z,100.00
2023-02-23T23:54:31.126Z,100.00
2023-02-23T23:57:01.707Z,100.00
2023-02-23T23:59:32.038Z,100.00
